Time;durP1;ratioP1;P1;durP2;ratioP2;P2;SDS_P1;SDS_P2;PMS_P1;PMS_P2;Temp;Humidity;BMP_temperature;BMP_pressure;BME280_temperature;BME280_humidity;BME280_pressure;Samples;Min_cycle;Max_cycle;Signal;HPM_P1;HPM_P2
2021/11/07 00:04:27;;;;;;;10.93;5.18;;;11.20;99.90;;;;;;5047960;28;20039;-76
2021/11/07 00:07:19;;;;;;;8.88;4.30;;;11.20;99.90;;;;;;5061126;28;20024;-76
2021/11/07 00:12:30;;;;;;;11.43;4.97;;;11.10;99.90;;;;;;5062688;28;20047;-75
2021/11/07 00:14:56;;;;;;;8.00;5.05;;;11.10;99.90;;;;;;5055268;28;20020;-76
2021/11/07 00:17:27;;;;;;;12.23;5.40;;;11.00;99.90;;;;;;5045978;28;20474;-76
2021/11/07 00:20:20;;;;;;;10.32;5.90;;;11.10;99.90;;;;;;5059789;28;20472;-76
2021/11/07 00:27:45;;;;;;;13.32;5.78;;;11.10;99.90;;;;;;5055515;28;20108;-77
2021/11/07 00:32:56;;;;;;;12.88;6.85;;;11.10;99.90;;;;;;5058882;28;20028;-78
2021/11/07 00:38:04;;;;;;;11.18;6.53;;;11.00;99.90;;;;;;5060245;28;20020;-77
2021/11/07 00:43:08;;;;;;;10.45;6.20;;;11.20;99.90;;;;;;5043690;28;20064;-77
2021/11/07 00:48:20;;;;;;;11.18;6.65;;;11.10;99.90;;;;;;5065126;28;20751;-77
2021/11/07 00:51:18;;;;;;;13.35;8.13;;;11.10;99.90;;;;;;5066368;28;20166;-78
2021/11/07 00:54:04;;;;;;;14.93;7.82;;;11.10;99.90;;;;;;5039314;28;20013;-77
2021/11/07 00:57:15;;;;;;;12.57;6.90;;;11.10;99.90;;;;;;5062243;28;20121;-78
2021/11/07 01:02:05;;;;;;;11.80;7.57;;;11.10;99.90;;;;;;5048993;28;20473;-77
2021/11/07 01:04:30;;;;;;;10.55;7.63;;;11.10;99.90;;;;;;5047037;28;20112;-78
2021/11/07 01:06:56;;;;;;;11.93;8.65;;;11.00;99.90;;;;;;5062564;28;20151;-77
2021/11/07 01:09:22;;;;;;;10.88;6.95;;;11.10;99.90;;;;;;5054605;28;20029;-77
2021/11/07 01:11:48;;;;;;;11.10;7.43;;;11.10;99.90;;;;;;5066909;28;20652;-77
2021/11/07 01:14:14;;;;;;;10.88;7.75;;;11.10;99.90;;;;;;5061995;28;20021;-77
2021/11/07 01:16:41;;;;;;;14.73;9.10;;;11.00;99.90;;;;;;5058782;28;20025;-77
2021/11/07 01:19:08;;;;;;;12.35;8.00;;;11.10;99.90;;;;;;5055892;28;20141;-76
2021/11/07 01:21:37;;;;;;;7.75;6.95;;;11.10;99.90;;;;;;5050957;28;20052;-76
2021/11/07 01:24:07;;;;;;;9.35;6.88;;;11.10;99.90;;;;;;5040548;28;20486;-77
2021/11/07 01:26:37;;;;;;;7.50;6.53;;;11.00;99.90;;;;;;5030162;28;20103;-77
2021/11/07 01:31:34;;;;;;;9.25;6.97;;;11.10;99.90;;;;;;5031685;28;20041;-76
2021/11/07 01:34:01;;;;;;;7.85;6.72;;;11.10;99.90;;;;;;5035363;28;20106;-82
2021/11/07 01:41:32;;;;;;;9.02;7.30;;;11.10;99.90;;;;;;5039136;28;20045;-76
2021/11/07 01:43:59;;;;;;;13.13;6.93;;;11.10;99.90;;;;;;5039418;28;20025;-76
2021/11/07 01:46:28;;;;;;;10.70;8.10;;;11.20;99.90;;;;;;5042044;28;20107;-77
2021/11/07 01:49:09;;;;;;;10.10;7.68;;;11.20;99.90;;;;;;5042000;28;20014;-77
2021/11/07 01:51:36;;;;;;;11.50;8.70;;;11.10;99.90;;;;;;5040298;28;20135;-77
2021/11/07 01:54:16;;;;;;;18.60;14.55;;;11.20;99.90;;;;;;5040046;28;20022;-77
2021/11/07 01:56:42;;;;;;;14.02;9.52;;;11.10;99.90;;;;;;5040704;28;20025;-76
2021/11/07 01:59:08;;;;;;;11.88;9.95;;;11.00;99.90;;;;;;5043799;28;20021;-76
2021/11/07 02:01:34;;;;;;;12.23;8.95;;;11.10;99.90;;;;;;5040853;28;20017;-77
2021/11/07 02:03:59;;;;;;;15.93;9.68;;;11.10;99.90;;;;;;5041397;28;20079;-76
2021/11/07 02:06:26;;;;;;;12.02;8.38;;;11.10;99.90;;;;;;5038891;28;20068;-77
2021/11/07 02:08:52;;;;;;;16.70;11.10;;;11.20;99.90;;;;;;5042867;28;20477;-76
2021/11/07 02:11:18;;;;;;;14.70;10.10;;;11.10;99.90;;;;;;5040961;28;20032;-77
2021/11/07 02:13:45;;;;;;;11.73;8.10;;;11.10;99.90;;;;;;5040015;28;20087;-77
2021/11/07 02:16:11;;;;;;;13.68;8.63;;;11.20;99.90;;;;;;5041990;28;20040;-79
2021/11/07 02:18:37;;;;;;;18.42;11.95;;;11.20;99.90;;;;;;5039302;28;20026;-78
2021/11/07 02:21:04;;;;;;;14.20;10.05;;;11.20;99.90;;;;;;5039767;28;20021;-77
2021/11/07 02:23:30;;;;;;;14.00;9.82;;;11.20;99.90;;;;;;5041222;28;20031;-78
2021/11/07 02:26:00;;;;;;;14.05;10.35;;;11.20;99.90;;;;;;5039265;28;20108;-77
2021/11/07 02:28:39;;;;;;;20.33;13.93;;;11.20;99.90;;;;;;5040677;28;20033;-77
2021/11/07 02:31:07;;;;;;;17.30;12.65;;;11.20;99.90;;;;;;5044957;28;20029;-76
2021/11/07 02:33:33;;;;;;;21.05;10.98;;;11.20;99.90;;;;;;5043361;28;20519;-76
2021/11/07 02:36:08;;;;;;;17.40;12.70;;;11.20;99.90;;;;;;5044496;28;20029;-77
2021/11/07 02:38:36;;;;;;;13.25;10.10;;;11.20;99.90;;;;;;5043756;28;20378;-77
2021/11/07 02:41:03;;;;;;;16.35;12.25;;;11.20;99.90;;;;;;5042169;28;20060;-76
2021/11/07 02:43:29;;;;;;;14.10;11.20;;;11.30;99.90;;;;;;5039922;28;20493;-76
2021/11/07 02:45:55;;;;;;;17.38;11.93;;;11.30;99.90;;;;;;5048631;28;20054;-77
2021/11/07 02:48:20;;;;;;;18.20;12.48;;;11.20;99.90;;;;;;5045079;28;20386;-77
2021/11/07 02:50:46;;;;;;;16.45;12.05;;;11.20;99.90;;;;;;5046724;28;20041;-76
2021/11/07 02:53:12;;;;;;;14.73;12.10;;;11.20;99.90;;;;;;5041882;28;20017;-77
2021/11/07 02:55:38;;;;;;;21.00;13.73;;;11.20;99.90;;;;;;5044460;28;20029;-77
2021/11/07 02:58:04;;;;;;;20.33;11.88;;;11.20;99.90;;;;;;5042508;28;20027;-77
2021/11/07 03:00:33;;;;;;;17.73;11.98;;;11.20;99.90;;;;;;5045391;28;20095;-77
2021/11/07 03:02:59;;;;;;;22.73;13.57;;;11.30;99.90;;;;;;5045068;28;20048;-77
2021/11/07 03:05:29;;;;;;;21.73;13.50;;;11.20;99.90;;;;;;5044403;28;20036;-77
2021/11/07 03:07:55;;;;;;;20.13;13.93;;;11.30;99.90;;;;;;5045383;28;20039;-77
2021/11/07 03:10:23;;;;;;;23.52;16.08;;;11.30;99.90;;;;;;5043745;28;20032;-76
2021/11/07 03:13:10;;;;;;;22.98;15.05;;;11.40;99.90;;;;;;5042835;28;20035;-76
2021/11/07 03:15:36;;;;;;;18.10;13.05;;;11.30;99.90;;;;;;5044577;28;20112;-77
2021/11/07 03:18:03;;;;;;;20.52;14.75;;;11.30;99.90;;;;;;5042610;28;20021;-77
2021/11/07 03:20:29;;;;;;;18.83;13.70;;;11.30;99.90;;;;;;5041946;28;20025;-76
2021/11/07 03:22:56;;;;;;;21.23;13.68;;;11.30;99.90;;;;;;5043671;28;20480;-77
2021/11/07 03:25:23;;;;;;;17.92;12.48;;;11.40;99.90;;;;;;5044064;28;20043;-76
2021/11/07 03:27:49;;;;;;;17.77;13.43;;;11.40;99.90;;;;;;5041723;28;20022;-77
2021/11/07 03:30:39;;;;;;;19.27;13.95;;;11.40;99.90;;;;;;5044137;28;20496;-77
2021/11/07 03:35:49;;;;;;;22.45;14.48;;;11.40;99.90;;;;;;5044571;28;20028;-77
2021/11/07 03:38:15;;;;;;;21.85;14.50;;;11.40;99.90;;;;;;5042972;28;20022;-77
2021/11/07 03:40:42;;;;;;;23.33;15.05;;;11.40;99.90;;;;;;5042850;28;20009;-75
2021/11/07 03:43:07;;;;;;;23.17;15.77;;;11.40;99.90;;;;;;5044848;28;20029;-77
2021/11/07 03:45:33;;;;;;;24.15;16.60;;;11.40;99.90;;;;;;5041687;28;20095;-77
2021/11/07 03:48:01;;;;;;;26.27;15.55;;;11.40;99.90;;;;;;5042487;28;20021;-77
2021/11/07 03:50:27;;;;;;;25.02;17.05;;;11.40;99.90;;;;;;5039118;28;20229;-76
2021/11/07 03:52:53;;;;;;;22.95;16.42;;;11.40;99.90;;;;;;5041218;28;20013;-77
2021/11/07 03:55:19;;;;;;;26.23;17.77;;;11.40;99.90;;;;;;5049628;28;20025;-77
2021/11/07 03:57:45;;;;;;;26.55;16.30;;;11.50;99.90;;;;;;5053318;28;20466;-76
2021/11/07 04:00:12;;;;;;;22.58;15.60;;;11.50;99.90;;;;;;5042456;28;20091;-76
2021/11/07 04:02:39;;;;;;;27.77;17.02;;;11.50;99.90;;;;;;5034496;28;20025;-76
2021/11/07 04:05:07;;;;;;;20.70;14.52;;;11.50;99.90;;;;;;5034676;28;20443;-77
2021/11/07 04:07:33;;;;;;;28.90;18.85;;;11.40;99.90;;;;;;5034641;28;20390;-76
2021/11/07 04:09:59;;;;;;;29.30;18.25;;;11.40;99.90;;;;;;5034344;28;20435;-75
2021/11/07 04:12:25;;;;;;;26.05;17.48;;;11.40;99.90;;;;;;5035565;28;20118;-76
2021/11/07 04:14:50;;;;;;;28.05;19.13;;;11.40;99.90;;;;;;5034592;28;20028;-76
2021/11/07 04:17:17;;;;;;;27.25;17.83;;;11.50;99.90;;;;;;5034918;28;20026;-77
2021/11/07 04:19:43;;;;;;;31.08;17.38;;;11.50;99.90;;;;;;5034700;28;20028;-77
2021/11/07 04:22:11;;;;;;;31.40;19.08;;;11.50;99.90;;;;;;5034250;28;20088;-76
2021/11/07 04:24:37;;;;;;;28.52;19.35;;;11.50;99.90;;;;;;5052960;28;20078;-76
2021/11/07 04:27:03;;;;;;;26.48;18.00;;;11.50;99.90;;;;;;5053785;28;20418;-77
2021/11/07 04:29:28;;;;;;;33.05;19.75;;;11.50;99.90;;;;;;5053839;28;20036;-76
2021/11/07 04:31:55;;;;;;;26.33;18.17;;;11.50;99.90;;;;;;5044356;28;20410;-76
2021/11/07 04:34:20;;;;;;;35.92;19.95;;;11.60;99.90;;;;;;5043362;28;20623;-76
2021/11/07 04:36:46;;;;;;;27.02;17.90;;;11.60;99.90;;;;;;5048577;28;20130;-77
2021/11/07 04:39:12;;;;;;;25.98;18.02;;;11.60;99.90;;;;;;5053436;28;20029;-76
2021/11/07 04:41:37;;;;;;;25.73;18.08;;;11.60;99.90;;;;;;5051740;28;20021;-76
2021/11/07 04:44:03;;;;;;;28.52;19.05;;;11.60;99.90;;;;;;5053746;28;20032;-76
2021/11/07 04:46:29;;;;;;;29.52;18.17;;;11.70;99.90;;;;;;5052170;28;20377;-76
2021/11/07 04:48:55;;;;;;;27.23;17.42;;;11.70;99.90;;;;;;5053831;28;20029;-76
2021/11/07 04:51:20;;;;;;;26.65;18.13;;;11.70;99.90;;;;;;5051854;28;20115;-76
2021/11/07 04:53:46;;;;;;;28.35;17.88;;;11.70;99.90;;;;;;5053621;28;20028;-76
2021/11/07 04:56:13;;;;;;;24.52;16.17;;;11.70;99.90;;;;;;5053613;28;20032;-76
2021/11/07 04:58:39;;;;;;;22.35;16.38;;;11.60;99.90;;;;;;5052405;28;20036;-76
2021/11/07 05:01:05;;;;;;;24.35;16.45;;;11.70;99.90;;;;;;5053077;28;20021;-76
2021/11/07 05:03:31;;;;;;;23.20;16.45;;;11.70;99.90;;;;;;5052922;28;20101;-76
2021/11/07 05:05:57;;;;;;;26.58;16.75;;;11.70;99.90;;;;;;5052840;28;20397;-76
2021/11/07 05:08:23;;;;;;;24.52;16.83;;;11.70;99.90;;;;;;5052819;28;20071;-76
2021/11/07 05:10:49;;;;;;;28.05;16.90;;;11.70;99.90;;;;;;5052827;28;20132;-76
2021/11/07 05:13:15;;;;;;;23.65;16.67;;;11.70;99.90;;;;;;5051727;28;20064;-76
2021/11/07 05:15:41;;;;;;;23.77;16.67;;;11.80;99.90;;;;;;5052935;28;20052;-76
2021/11/07 05:18:06;;;;;;;26.90;16.92;;;11.70;99.90;;;;;;5039081;28;20462;-76
2021/11/07 05:20:32;;;;;;;25.90;16.45;;;11.70;99.90;;;;;;5033397;28;20432;-76
2021/11/07 05:22:58;;;;;;;20.90;15.27;;;11.70;99.90;;;;;;5032977;28;20033;-76
2021/11/07 05:25:23;;;;;;;26.30;15.60;;;11.80;99.90;;;;;;5032005;28;20026;-76
2021/11/07 05:27:49;;;;;;;25.48;15.45;;;11.80;99.90;;;;;;5038891;28;20412;-76
2021/11/07 05:30:17;;;;;;;29.92;17.65;;;11.90;99.90;;;;;;5031494;28;20128;-78
2021/11/07 05:32:44;;;;;;;31.50;17.20;;;11.80;99.90;;;;;;5032309;28;20100;-77
2021/11/07 05:35:12;;;;;;;24.30;16.30;;;11.80;99.90;;;;;;5050247;28;20036;-77
2021/11/07 05:37:38;;;;;;;29.52;17.52;;;11.70;99.90;;;;;;5052487;28;20124;-77
2021/11/07 05:40:06;;;;;;;27.73;18.42;;;11.80;99.90;;;;;;5052663;28;20381;-76
2021/11/07 05:42:32;;;;;;;28.20;16.48;;;11.80;99.90;;;;;;5041423;28;20079;-76
2021/11/07 05:44:58;;;;;;;29.98;19.10;;;11.90;99.90;;;;;;5043244;28;20024;-76
2021/11/07 05:47:24;;;;;;;27.08;16.88;;;11.90;99.90;;;;;;5032745;28;20026;-76
2021/11/07 05:49:49;;;;;;;29.95;17.85;;;11.90;99.90;;;;;;5032698;28;20025;-76
2021/11/07 05:52:17;;;;;;;31.45;17.05;;;11.90;99.90;;;;;;5032866;28;20092;-76
2021/11/07 05:54:43;;;;;;;23.95;15.90;;;11.90;99.90;;;;;;5032417;28;20478;-76
2021/11/07 05:57:09;;;;;;;27.23;16.98;;;11.90;99.90;;;;;;5032717;28;20075;-76
2021/11/07 05:59:34;;;;;;;28.33;16.55;;;11.90;99.90;;;;;;5032965;28;20104;-76
2021/11/07 06:02:00;;;;;;;31.30;18.25;;;11.90;99.90;;;;;;5032780;28;20100;-76
2021/11/07 06:04:26;;;;;;;26.02;16.70;;;11.90;99.90;;;;;;5036941;28;20026;-76
2021/11/07 06:06:51;;;;;;;26.95;17.42;;;11.90;99.90;;;;;;5036772;28;20026;-76
2021/11/07 06:09:17;;;;;;;22.75;16.13;;;11.90;99.90;;;;;;5036388;28;20029;-76
2021/11/07 06:11:42;;;;;;;26.00;16.42;;;12.00;99.90;;;;;;5036918;28;20025;-77
2021/11/07 06:14:08;;;;;;;26.33;17.52;;;12.00;99.90;;;;;;5036252;28;20080;-77
2021/11/07 06:16:34;;;;;;;25.27;15.63;;;12.00;99.90;;;;;;5036767;28;20034;-77
2021/11/07 06:18:59;;;;;;;27.63;16.27;;;12.00;99.90;;;;;;5036559;28;20104;-76
2021/11/07 06:21:25;;;;;;;25.35;16.63;;;12.00;99.90;;;;;;5036847;28;20034;-76
2021/11/07 06:23:51;;;;;;;25.92;16.40;;;12.00;99.90;;;;;;5053262;28;20108;-76
2021/11/07 06:26:17;;;;;;;23.83;17.00;;;12.00;99.90;;;;;;5055877;28;20112;-76
2021/11/07 06:28:43;;;;;;;21.30;14.43;;;12.00;99.90;;;;;;5055307;28;20480;-76
2021/11/07 06:31:09;;;;;;;29.58;16.77;;;12.00;99.90;;;;;;5055074;28;20112;-76
2021/11/07 06:33:36;;;;;;;23.30;15.13;;;12.00;99.90;;;;;;5056109;28;20024;-76
2021/11/07 06:36:02;;;;;;;23.33;14.68;;;12.10;99.90;;;;;;5056073;28;20021;-76
2021/11/07 06:38:28;;;;;;;22.27;12.60;;;12.00;99.90;;;;;;5056082;28;20021;-76
2021/11/07 06:40:54;;;;;;;23.50;12.90;;;12.00;99.90;;;;;;5055707;28;20102;-76
2021/11/07 06:43:20;;;;;;;25.27;13.40;;;12.00;99.90;;;;;;5055578;28;20032;-76
2021/11/07 06:45:45;;;;;;;25.05;13.77;;;12.00;99.90;;;;;;5055762;28;20111;-77
2021/11/07 06:48:11;;;;;;;27.30;13.98;;;12.00;99.90;;;;;;5055842;28;20021;-76
2021/11/07 06:50:37;;;;;;;21.00;13.07;;;12.00;99.90;;;;;;5055972;28;20025;-77
2021/11/07 06:53:03;;;;;;;21.88;13.75;;;12.10;99.90;;;;;;5055599;28;20162;-76
2021/11/07 06:55:28;;;;;;;25.80;13.45;;;12.10;99.90;;;;;;5051915;28;20028;-76
2021/11/07 06:57:54;;;;;;;26.65;13.85;;;12.10;99.90;;;;;;5035354;28;20549;-77
2021/11/07 07:00:24;;;;;;;21.50;13.35;;;12.10;99.90;;;;;;5052829;28;20095;-77
2021/11/07 07:02:50;;;;;;;20.02;13.27;;;12.00;99.90;;;;;;5055227;28;20027;-76
2021/11/07 07:05:19;;;;;;;27.30;13.18;;;12.00;99.90;;;;;;5055634;28;20032;-76
2021/11/07 07:07:50;;;;;;;26.23;13.60;;;12.00;99.90;;;;;;5055825;28;20027;-76
2021/11/07 07:10:31;;;;;;;20.27;11.90;;;12.00;99.90;;;;;;5047336;28;20076;-76
2021/11/07 07:13:09;;;;;;;24.48;13.68;;;12.10;99.90;;;;;;5034655;28;20056;-76
2021/11/07 07:15:39;;;;;;;30.70;13.38;;;12.10;99.90;;;;;;5047147;28;20060;-76
2021/11/07 07:33:29;;;;;;;22.73;12.95;;;12.10;99.90;;;;;;5053241;28;20033;-76
2021/11/07 07:35:56;;;;;;;22.52;12.50;;;12.10;99.90;;;;;;5045793;28;20048;-76
2021/11/07 07:38:24;;;;;;;19.75;11.65;;;12.10;99.90;;;;;;5042567;28;20386;-76
2021/11/07 07:40:50;;;;;;;20.98;11.35;;;12.10;99.90;;;;;;5044152;28;20035;-76
2021/11/07 07:43:16;;;;;;;22.05;11.45;;;12.10;99.90;;;;;;5045802;28;20553;-76
2021/11/07 07:45:41;;;;;;;24.15;11.32;;;12.10;99.90;;;;;;5041710;28;20048;-75
2021/11/07 07:48:07;;;;;;;25.98;11.20;;;12.10;99.90;;;;;;5054428;28;20107;-75
2021/11/07 07:50:34;;;;;;;26.77;10.57;;;12.10;99.90;;;;;;5053489;28;20021;-75
2021/11/07 07:53:00;;;;;;;25.10;9.07;;;12.20;99.90;;;;;;5043357;28;20057;-75
2021/11/07 07:55:26;;;;;;;19.67;8.27;;;12.10;99.90;;;;;;5044315;28;20389;-75
2021/11/07 07:57:52;;;;;;;23.95;8.95;;;12.20;99.90;;;;;;5044754;28;20021;-75
2021/11/07 08:00:20;;;;;;;19.80;8.65;;;12.20;99.90;;;;;;5043601;28;20051;-75
2021/11/07 08:02:47;;;;;;;22.23;8.27;;;12.20;99.90;;;;;;5044257;28;20028;-75
2021/11/07 08:05:14;;;;;;;21.02;7.68;;;12.20;99.90;;;;;;5040641;28;20022;-75
2021/11/07 08:07:42;;;;;;;21.17;7.05;;;12.20;99.90;;;;;;5052118;28;20063;-75
2021/11/07 08:10:08;;;;;;;20.95;7.35;;;12.30;99.90;;;;;;5053582;28;20123;-75
2021/11/07 08:12:37;;;;;;;23.95;7.88;;;12.20;99.90;;;;;;5053298;28;20063;-75
2021/11/07 08:15:03;;;;;;;21.05;8.02;;;12.30;99.90;;;;;;5052718;28;20033;-75
2021/11/07 08:17:30;;;;;;;22.17;6.20;;;12.30;99.90;;;;;;5052207;28;20052;-75
2021/11/07 08:19:56;;;;;;;21.83;6.60;;;12.30;99.90;;;;;;5048745;28;20099;-75
2021/11/07 08:22:21;;;;;;;16.90;5.70;;;12.20;99.90;;;;;;5041470;28;20013;-75
2021/11/07 08:24:47;;;;;;;17.25;5.30;;;12.20;99.90;;;;;;5053586;28;20033;-75
2021/11/07 08:27:15;;;;;;;15.55;5.18;;;12.20;99.90;;;;;;5053137;28;20469;-75
2021/11/07 08:29:42;;;;;;;22.30;5.97;;;12.30;99.90;;;;;;5042778;28;20121;-76
2021/11/07 08:32:08;;;;;;;22.27;4.78;;;12.30;99.90;;;;;;5042386;28;20021;-74
2021/11/07 08:34:34;;;;;;;22.00;4.15;;;12.20;99.90;;;;;;5050683;28;20028;-75
2021/11/07 08:39:31;;;;;;;15.90;4.53;;;12.30;99.90;;;;;;5052182;28;20029;-75
2021/11/07 08:42:04;;;;;;;21.02;5.05;;;12.30;99.90;;;;;;5052587;28;20098;-75
2021/11/07 09:01:09;;;;;;;17.63;3.92;;;12.20;99.90;;;;;;5043550;28;20458;-75
2021/11/07 09:06:23;;;;;;;17.63;4.15;;;12.30;99.90;;;;;;5042964;28;20029;-75
2021/11/07 09:08:50;;;;;;;20.20;4.45;;;12.20;99.90;;;;;;5043135;28;20032;-75
2021/11/07 09:11:17;;;;;;;19.50;4.13;;;12.20;99.90;;;;;;5041856;28;20026;-75
2021/11/07 09:13:43;;;;;;;19.05;4.32;;;12.40;99.90;;;;;;5043845;28;20021;-75
2021/11/07 09:16:11;;;;;;;18.35;3.95;;;12.40;99.90;;;;;;5042603;28;20071;-75
2021/11/07 09:18:38;;;;;;;17.20;4.00;;;12.40;99.90;;;;;;5041633;28;20024;-75
2021/11/07 09:21:08;;;;;;;16.13;3.65;;;12.40;99.90;;;;;;5035391;28;20033;-75
2021/11/07 09:23:57;;;;;;;21.50;4.50;;;12.40;99.90;;;;;;5032799;28;20033;-75
2021/11/07 09:29:05;;;;;;;17.45;4.43;;;12.50;99.90;;;;;;5033074;28;20044;-75
2021/11/07 09:36:31;;;;;;;16.48;5.63;;;12.70;99.90;;;;;;5052020;28;20092;-75
2021/11/07 09:39:15;;;;;;;18.80;3.58;;;12.70;99.90;;;;;;5052334;28;20472;-74
2021/11/07 09:44:16;;;;;;;13.77;2.72;;;12.80;99.90;;;;;;5032440;28;20405;-75
2021/11/07 09:46:49;;;;;;;21.13;4.38;;;12.90;99.90;;;;;;5032829;28;20071;-74
2021/11/07 09:49:22;;;;;;;18.00;3.60;;;12.90;99.90;;;;;;5032409;28;20029;-75
2021/11/07 09:51:55;;;;;;;18.33;3.55;;;12.90;99.90;;;;;;5032120;28;20029;-75
2021/11/07 09:54:21;;;;;;;13.23;3.67;;;12.90;99.90;;;;;;5033077;28;20026;-75
2021/11/07 09:56:51;;;;;;;22.80;4.20;;;12.80;99.90;;;;;;5031798;28;20053;-75
2021/11/07 09:59:19;;;;;;;27.85;4.38;;;12.80;99.90;;;;;;5032758;28;20017;-75
2021/11/07 10:01:46;;;;;;;17.30;3.72;;;12.90;99.90;;;;;;5031920;28;20020;-75
2021/11/07 10:04:13;;;;;;;17.95;4.22;;;12.90;99.90;;;;;;5031603;28;20025;-75
2021/11/07 10:06:53;;;;;;;21.65;3.45;;;12.90;99.90;;;;;;5032174;28;20021;-75
2021/11/07 10:09:39;;;;;;;15.23;4.30;;;12.90;99.90;;;;;;5032285;28;20022;-75
2021/11/07 10:12:10;;;;;;;20.15;3.80;;;12.90;99.90;;;;;;5032594;28;20030;-75
2021/11/07 10:14:44;;;;;;;25.05;4.18;;;13.00;99.90;;;;;;5040466;28;20166;-75
2021/11/07 10:17:45;;;;;;;21.65;3.42;;;13.00;99.90;;;;;;5050555;28;20071;-73
2021/11/07 10:20:41;;;;;;;19.98;3.97;;;13.00;99.90;;;;;;5051815;28;20033;-74
2021/11/07 10:23:36;;;;;;;14.25;3.00;;;13.00;99.90;;;;;;5032598;28;20029;-74
2021/11/07 10:29:02;;;;;;;16.80;3.13;;;13.00;99.90;;;;;;5032770;28;20037;-76
2021/11/07 10:31:31;;;;;;;21.80;4.10;;;12.90;99.90;;;;;;5032119;28;20045;-76
2021/11/07 10:44:52;;;;;;;20.80;3.47;;;12.90;99.90;;;;;;5052173;28;20041;-75
2021/11/07 10:47:34;;;;;;;20.75;3.17;;;12.80;99.90;;;;;;5052040;28;20100;-75
2021/11/07 10:52:48;;;;;;;18.45;3.38;;;12.80;99.90;;;;;;5040412;28;20114;-75
2021/11/07 10:55:20;;;;;;;18.83;3.38;;;12.80;99.90;;;;;;5054180;28;20045;-75
2021/11/07 10:57:49;;;;;;;21.42;4.00;;;12.90;99.90;;;;;;5071315;28;20583;-75
2021/11/07 11:00:23;;;;;;;17.48;3.53;;;12.90;99.90;;;;;;5048635;28;20033;-76
2021/11/07 11:02:54;;;;;;;17.98;3.58;;;13.00;99.90;;;;;;5065373;28;20020;-74
2021/11/07 11:05:35;;;;;;;21.20;4.00;;;13.00;99.90;;;;;;5059117;28;20020;-74
2021/11/07 11:08:05;;;;;;;14.68;2.88;;;13.00;99.90;;;;;;5043786;28;20439;-74
2021/11/07 11:10:39;;;;;;;19.55;3.70;;;13.00;99.90;;;;;;5065389;28;20032;-76
2021/11/07 11:13:12;;;;;;;16.83;3.33;;;13.10;99.90;;;;;;5068986;28;20037;-75
2021/11/07 11:15:51;;;;;;;23.15;4.20;;;13.00;99.90;;;;;;5057800;28;20112;-75
2021/11/07 11:34:34;;;;;;;22.17;3.95;;;12.80;99.90;;;;;;5060775;28;20028;-76
2021/11/07 11:37:11;;;;;;;22.67;3.88;;;12.90;99.90;;;;;;5066330;28;20143;-75
2021/11/07 11:39:43;;;;;;;15.88;3.47;;;12.90;99.90;;;;;;5068508;28;20050;-75
2021/11/07 11:42:23;;;;;;;16.52;3.35;;;12.70;99.90;;;;;;5058880;28;20107;-75
2021/11/07 11:44:53;;;;;;;15.15;2.72;;;12.70;99.90;;;;;;5060498;28;20385;-75
2021/11/07 11:47:42;;;;;;;21.63;4.35;;;12.70;99.90;;;;;;5069173;28;20077;-76
2021/11/07 11:55:31;;;;;;;22.10;3.40;;;12.70;99.90;;;;;;5066753;28;20550;-75
2021/11/07 11:58:12;;;;;;;16.08;3.70;;;12.80;99.90;;;;;;5042350;28;20055;-76
2021/11/07 12:06:34;;;;;;;76.75;14.70;;;12.90;99.90;;;;;;5045200;28;20448;-73
2021/11/07 12:14:53;;;;;;;54.17;9.85;;;13.00;99.90;;;;;;5061264;28;20025;-81
2021/11/07 12:17:28;;;;;;;71.07;13.20;;;13.10;99.90;;;;;;5056416;28;20523;-81
2021/11/07 12:19:54;;;;;;;49.80;8.40;;;13.10;99.90;;;;;;5040935;28;20016;-82
2021/11/07 12:22:28;;;;;;;27.42;5.35;;;13.00;99.90;;;;;;5062419;28;20112;-81
2021/11/07 12:24:54;;;;;;;28.08;4.70;;;12.90;99.90;;;;;;5051382;28;20388;-81
2021/11/07 12:27:41;;;;;;;31.17;5.72;;;13.00;99.90;;;;;;5064933;28;20025;-81
2021/11/07 12:30:20;;;;;;;29.80;4.45;;;13.00;99.90;;;;;;5047116;28;20119;-81
2021/11/07 12:32:47;;;;;;;30.55;5.63;;;13.00;99.90;;;;;;5064318;28;20064;-77
2021/11/07 12:35:24;;;;;;;22.92;4.38;;;13.00;99.90;;;;;;5065735;28;20013;-74
2021/11/07 12:41:12;;;;;;;41.80;7.15;;;13.10;99.90;;;;;;5043824;28;20043;-75
2021/11/07 12:43:42;;;;;;;24.85;4.15;;;13.10;99.90;;;;;;5040801;28;20043;-74
2021/11/07 12:46:47;;;;;;;26.98;5.30;;;13.20;99.90;;;;;;5045315;28;20042;-75
2021/11/07 12:49:15;;;;;;;23.90;4.80;;;13.30;99.90;;;;;;5057413;28;20028;-74
2021/11/07 12:51:49;;;;;;;24.10;3.95;;;13.30;99.90;;;;;;5068269;28;20036;-75
2021/11/07 12:54:19;;;;;;;26.48;4.32;;;13.30;99.90;;;;;;5047336;28;20058;-76
2021/11/07 12:57:00;;;;;;;18.08;4.57;;;13.20;99.90;;;;;;5048888;28;20078;-74
2021/11/07 12:59:47;;;;;;;23.58;4.05;;;13.30;99.90;;;;;;5044645;28;20564;-74
2021/11/07 13:02:18;;;;;;;21.05;4.75;;;13.20;99.90;;;;;;5048806;28;20021;-74
2021/11/07 13:04:56;;;;;;;42.53;6.78;;;13.20;99.90;;;;;;5048570;28;20032;-74
2021/11/07 13:07:49;;;;;;;27.67;5.53;;;13.10;99.90;;;;;;5068200;28;20028;-76
2021/11/07 13:10:46;;;;;;;20.50;3.78;;;13.10;99.90;;;;;;5058270;28;20070;-76
2021/11/07 13:13:33;;;;;;;19.63;3.42;;;13.20;99.90;;;;;;5042157;28;20029;-74
2021/11/07 13:22:15;;;;;;;17.98;3.80;;;13.00;99.90;;;;;;5045058;28;20040;-77
2021/11/07 13:27:03;;;;;;;18.88;4.10;;;12.90;99.90;;;;;;5040943;28;20061;-78
2021/11/07 13:29:41;;;;;;;17.45;3.60;;;13.00;99.90;;;;;;5048655;28;20473;-75
2021/11/07 13:34:36;;;;;;;19.45;3.97;;;13.00;99.90;;;;;;5048159;28;20493;-78
2021/11/07 13:37:05;;;;;;;21.63;4.30;;;13.00;99.90;;;;;;5050921;28;20025;-78
2021/11/07 13:39:34;;;;;;;22.25;4.30;;;13.00;99.90;;;;;;5051987;28;20017;-73
2021/11/07 13:42:12;;;;;;;16.17;3.72;;;12.90;99.90;;;;;;5054299;28;20475;-75
2021/11/07 13:44:54;;;;;;;22.48;4.50;;;12.90;99.90;;;;;;5048678;28;20017;-77
2021/11/07 13:47:43;;;;;;;21.08;3.97;;;12.90;99.90;;;;;;5047969;28;20478;-77
2021/11/07 13:50:16;;;;;;;24.35;4.15;;;12.90;99.90;;;;;;5041014;28;20028;-76
2021/11/07 13:52:43;;;;;;;17.00;4.07;;;12.80;99.90;;;;;;5043873;28;20140;-75
2021/11/07 13:55:17;;;;;;;19.27;3.55;;;12.80;99.90;;;;;;5041513;28;20025;-76
2021/11/07 13:57:43;;;;;;;25.63;3.70;;;12.70;99.90;;;;;;5046493;28;20029;-76
2021/11/07 14:00:12;;;;;;;17.92;3.80;;;12.80;99.90;;;;;;5053107;28;20067;-77
2021/11/07 14:02:45;;;;;;;22.67;4.00;;;12.80;99.90;;;;;;5052242;28;20033;-77
2021/11/07 14:05:11;;;;;;;25.80;3.75;;;12.70;99.90;;;;;;5041984;28;20359;-78
2021/11/07 14:07:37;;;;;;;19.60;4.07;;;12.80;99.90;;;;;;5047341;28;20063;-78
2021/11/07 14:10:13;;;;;;;20.38;4.15;;;12.80;99.90;;;;;;5048057;28;20033;-77
2021/11/07 14:12:53;;;;;;;25.45;4.35;;;12.70;99.90;;;;;;5046784;28;20622;-78
2021/11/07 14:15:24;;;;;;;16.58;4.07;;;12.60;99.90;;;;;;5044785;28;20461;-78
2021/11/07 14:17:52;;;;;;;18.50;4.00;;;12.70;99.90;;;;;;5049579;28;20516;-77
2021/11/07 14:20:42;;;;;;;23.88;4.38;;;12.70;99.90;;;;;;5052485;28;20017;-78
2021/11/07 14:23:34;;;;;;;23.15;3.97;;;12.70;99.90;;;;;;5048223;28;20458;-77
2021/11/07 14:29:21;;;;;;;21.58;4.00;;;12.70;99.90;;;;;;5069810;28;20100;-75
2021/11/07 14:37:02;;;;;;;21.92;4.68;;;12.50;99.90;;;;;;5055171;28;20033;-76
2021/11/07 14:42:18;;;;;;;20.52;4.43;;;12.50;99.90;;;;;;5055709;28;20612;-76
2021/11/07 14:47:23;;;;;;;25.40;4.78;;;12.50;99.90;;;;;;5053443;28;20033;-75
2021/11/07 14:53:08;;;;;;;26.75;4.53;;;12.60;99.90;;;;;;5043655;28;20722;-75
2021/11/07 14:55:48;;;;;;;21.70;4.78;;;12.50;99.90;;;;;;5048152;28;20025;-78
2021/11/07 14:58:31;;;;;;;25.30;4.45;;;12.60;99.90;;;;;;5044007;28;20021;-76
2021/11/07 15:01:16;;;;;;;30.45;4.45;;;12.60;99.90;;;;;;5053742;28;20039;-77
2021/11/07 15:04:25;;;;;;;24.15;5.53;;;12.60;99.90;;;;;;5051096;28;20086;-77
2021/11/07 15:07:07;;;;;;;27.40;4.75;;;12.50;99.90;;;;;;5049759;28;20542;-76
2021/11/07 15:13:25;;;;;;;20.38;4.47;;;12.40;99.90;;;;;;5054852;28;20055;-77
2021/11/07 15:15:35;;;;;;;19.95;4.25;;;12.40;99.90;;;;;;5057382;28;20423;-76
2021/11/07 15:23:37;;;;;;;25.52;5.60;;;12.20;99.90;;;;;;5051276;28;20033;-75
2021/11/07 15:26:22;;;;;;;29.90;5.88;;;12.20;99.90;;;;;;5052393;28;20353;-77
2021/11/07 15:29:07;;;;;;;31.33;5.57;;;12.20;99.90;;;;;;5058900;28;20384;-75
2021/11/07 15:31:33;;;;;;;21.42;4.88;;;12.20;99.90;;;;;;5050127;28;20037;-77
2021/11/07 15:34:02;;;;;;;27.63;5.22;;;12.20;99.90;;;;;;5066917;28;20069;-76
2021/11/07 15:36:34;;;;;;;23.80;5.40;;;12.10;99.90;;;;;;5058815;28;20092;-77
2021/11/07 15:39:17;;;;;;;27.20;5.63;;;12.10;99.90;;;;;;5059017;28;20048;-77
2021/11/07 15:42:03;;;;;;;25.48;4.65;;;12.10;99.90;;;;;;5062990;28;20018;-76